sensor_id;sensor_type;location;lat;lon;timestamp;pressure;altitude;pressure_sealevel;temperature;humidity
63111;BME280;49201;53.426;10.300;2023-02-08T00:00:22;104244.59;;;-3.14;100.00
63111;BME280;49201;53.426;10.300;2023-02-08T00:02:49;104239.22;;;-3.17;100.00
63111;BME280;49201;53.426;10.300;2023-02-08T00:05:15;104230.44;;;-3.21;100.00
63111;BME280;49201;53.426;10.300;2023-02-08T00:07:40;104230.91;;;-3.23;100.00
63111;BME280;49201;53.426;10.300;2023-02-08T00:10:06;104228.91;;;-3.26;100.00
63111;BME280;49201;53.426;10.300;2023-02-08T00:12:33;104236.06;;;-3.29;100.00
63111;BME280;49201;53.426;10.300;2023-02-08T00:14:59;104233.75;;;-3.27;100.00
63111;BME280;49201;53.426;10.300;2023-02-08T00:17:24;104236.06;;;-3.29;100.00
63111;BME280;49201;53.426;10.300;2023-02-08T00:19:50;104227.03;;;-3.34;100.00
63111;BME280;49201;53.426;10.300;2023-02-08T00:22:15;104222.03;;;-3.34;100.00
63111;BME280;49201;53.426;10.300;2023-02-08T00:24:41;104227.03;;;-3.34;100.00
63111;BME280;49201;53.426;10.300;2023-02-08T00:27:06;104223.06;;;-3.39;100.00
63111;BME280;49201;53.426;10.300;2023-02-08T00:29:32;104220.56;;;-3.39;100.00
63111;BME280;49201;53.426;10.300;2023-02-08T00:31:57;104222.56;;;-3.36;100.00
63111;BME280;49201;53.426;10.300;2023-02-08T00:34:23;104219.91;;;-3.31;100.00
63111;BME280;49201;53.426;10.300;2023-02-08T00:36:49;104211.22;;;-3.27;100.00
63111;BME280;49201;53.426;10.300;2023-02-08T00:39:15;104208.69;;;-3.27;100.00
63111;BME280;49201;53.426;10.300;2023-02-08T00:41:40;104210.59;;;-3.32;100.00
63111;BME280;49201;53.426;10.300;2023-02-08T00:44:06;104212.31;;;-3.38;100.00
63111;BME280;49201;53.426;10.300;2023-02-08T00:46:31;104201.03;;;-3.41;100.00
63111;BME280;49201;53.426;10.300;2023-02-08T00:48:57;104202.41;;;-3.43;100.00
63111;BME280;49201;53.426;10.300;2023-02-08T00:51:22;104206.53;;;-3.44;100.00
63111;BME280;49201;53.426;10.300;2023-02-08T00:53:48;104195.41;;;-3.46;100.00
63111;BME280;49201;53.426;10.300;2023-02-08T00:56:14;104195.22;;;-3.47;100.00
63111;BME280;49201;53.426;10.300;2023-02-08T00:58:40;104194.91;;;-3.43;100.00
63111;BME280;49201;53.426;10.300;2023-02-08T01:01:06;104197.34;;;-3.50;100.00
63111;BME280;49201;53.426;10.300;2023-02-08T01:03:34;104192.84;;;-3.53;100.00
63111;BME280;49201;53.426;10.300;2023-02-08T01:06:01;104192.44;;;-3.56;100.00
63111;BME280;49201;53.426;10.300;2023-02-08T01:08:27;104198.84;;;-3.58;100.00
63111;BME280;49201;53.426;10.300;2023-02-08T01:11:01;104197.03;;;-3.59;100.00
63111;BME280;49201;53.426;10.300;2023-02-08T01:13:27;104192.03;;;-3.59;100.00
63111;BME280;49201;53.426;10.300;2023-02-08T01:15:52;104192.53;;;-3.61;100.00
63111;BME280;49201;53.426;10.300;2023-02-08T01:18:18;104194.16;;;-3.62;100.00
63111;BME280;49201;53.426;10.300;2023-02-08T01:20:43;104192.34;;;-3.63;100.00
63111;BME280;49201;53.426;10.300;2023-02-08T01:23:09;104191.47;;;-3.63;100.00
63111;BME280;49201;53.426;10.300;2023-02-08T01:25:34;104193.75;;;-3.65;100.00
63111;BME280;49201;53.426;10.300;2023-02-08T01:27:59;104186.66;;;-3.62;100.00
63111;BME280;49201;53.426;10.300;2023-02-08T01:30:25;104189.84;;;-3.63;100.00
63111;BME280;49201;53.426;10.300;2023-02-08T01:32:50;104191.56;;;-3.69;100.00
63111;BME280;49201;53.426;10.300;2023-02-08T01:35:16;104191.56;;;-3.69;100.00
63111;BME280;49201;53.426;10.300;2023-02-08T01:37:41;104196.78;;;-3.67;100.00
63111;BME280;49201;53.426;10.300;2023-02-08T01:40:08;104189.72;;;-3.57;100.00
63111;BME280;49201;53.426;10.300;2023-02-08T01:42:34;104186.41;;;-3.51;100.00
63111;BME280;49201;53.426;10.300;2023-02-08T01:47:42;104182.69;;;-3.47;100.00
63111;BME280;49201;53.426;10.300;2023-02-08T01:50:11;104194.59;;;-3.39;100.00
63111;BME280;49201;53.426;10.300;2023-02-08T01:52:40;104193.31;;;-3.43;100.00
63111;BME280;49201;53.426;10.300;2023-02-08T01:55:11;104190.09;;;-3.42;100.00
63111;BME280;49201;53.426;10.300;2023-02-08T01:57:40;104183.06;;;-3.32;100.00
63111;BME280;49201;53.426;10.300;2023-02-08T02:00:16;104184.44;;;-3.21;100.00
63111;BME280;49201;53.426;10.300;2023-02-08T02:02:44;104187.66;;;-3.22;100.00
63111;BME280;49201;53.426;10.300;2023-02-08T02:05:10;104185.97;;;-3.29;100.00
63111;BME280;49201;53.426;10.300;2023-02-08T02:07:37;104188.06;;;-3.32;100.00
63111;BME280;49201;53.426;10.300;2023-02-08T02:10:20;104186.38;;;-3.38;100.00
63111;BME280;49201;53.426;10.300;2023-02-08T02:12:48;104188.31;;;-3.43;100.00
63111;BME280;49201;53.426;10.300;2023-02-08T02:15:14;104190.59;;;-3.44;100.00
63111;BME280;49201;53.426;10.300;2023-02-08T02:17:40;104190.91;;;-3.48;100.00
63111;BME280;49201;53.426;10.300;2023-02-08T02:36:37;104176.00;;;-3.54;100.00
63111;BME280;49201;53.426;10.300;2023-02-08T02:39:34;104179.16;;;-3.62;100.00
63111;BME280;49201;53.426;10.300;2023-02-08T02:42:27;104176.75;;;-3.67;100.00
63111;BME280;49201;53.426;10.300;2023-02-08T02:50:40;104179.16;;;-3.74;100.00
63111;BME280;49201;53.426;10.300;2023-02-08T02:53:12;104169.06;;;-3.81;100.00
63111;BME280;49201;53.426;10.300;2023-02-08T02:55:57;104177.84;;;-3.78;100.00
63111;BME280;49201;53.426;10.300;2023-02-08T02:58:24;104180.34;;;-3.78;100.00
63111;BME280;49201;53.426;10.300;2023-02-08T03:00:55;104175.84;;;-3.80;100.00
63111;BME280;49201;53.426;10.300;2023-02-08T03:03:24;104180.66;;;-3.82;100.00
63111;BME280;49201;53.426;10.300;2023-02-08T03:05:52;104172.56;;;-3.86;100.00
63111;BME280;49201;53.426;10.300;2023-02-08T03:11:21;104180.88;;;-3.93;100.00
63111;BME280;49201;53.426;10.300;2023-02-08T03:14:06;104181.19;;;-3.97;100.00
63111;BME280;49201;53.426;10.300;2023-02-08T03:19:42;104182.47;;;-4.06;100.00
63111;BME280;49201;53.426;10.300;2023-02-08T03:22:16;104184.56;;;-4.09;100.00
63111;BME280;49201;53.426;10.300;2023-02-08T03:25:24;104186.50;;;-4.13;100.00
63111;BME280;49201;53.426;10.300;2023-02-08T03:27:50;104175.19;;;-4.17;100.00
63111;BME280;49201;53.426;10.300;2023-02-08T03:30:46;104181.78;;;-4.17;100.00
63111;BME280;49201;53.426;10.300;2023-02-08T03:33:22;104184.28;;;-4.17;100.00
63111;BME280;49201;53.426;10.300;2023-02-08T03:38:38;104190.09;;;-4.24;100.00
63111;BME280;49201;53.426;10.300;2023-02-08T03:41:06;104186.69;;;-4.24;100.00
63111;BME280;49201;53.426;10.300;2023-02-08T03:43:43;104196.50;;;-4.26;100.00
63111;BME280;49201;53.426;10.300;2023-02-08T03:46:20;104198.38;;;-4.30;100.00
63111;BME280;49201;53.426;10.300;2023-02-08T03:48:51;104209.09;;;-4.31;100.00
63111;BME280;49201;53.426;10.300;2023-02-08T03:51:20;104206.38;;;-4.33;100.00
63111;BME280;49201;53.426;10.300;2023-02-08T03:53:48;104203.06;;;-4.39;100.00
63111;BME280;49201;53.426;10.300;2023-02-08T03:56:19;104204.59;;;-4.34;100.00
63111;BME280;49201;53.426;10.300;2023-02-08T03:58:52;104202.56;;;-4.36;100.00
63111;BME280;49201;53.426;10.300;2023-02-08T04:01:26;104205.16;;;-4.42;100.00
63111;BME280;49201;53.426;10.300;2023-02-08T04:03:54;104213.16;;;-4.44;100.00
63111;BME280;49201;53.426;10.300;2023-02-08T04:06:21;104213.28;;;-4.50;100.00
63111;BME280;49201;53.426;10.300;2023-02-08T04:08:47;104213.44;;;-4.48;100.00
63111;BME280;49201;53.426;10.300;2023-02-08T04:11:13;104216.25;;;-4.52;100.00
63111;BME280;49201;53.426;10.300;2023-02-08T04:13:38;104219.44;;;-4.53;100.00
63111;BME280;49201;53.426;10.300;2023-02-08T04:16:04;104223.06;;;-4.51;100.00
63111;BME280;49201;53.426;10.300;2023-02-08T04:18:30;104236.25;;;-4.52;100.00
63111;BME280;49201;53.426;10.300;2023-02-08T04:20:55;104228.06;;;-4.51;100.00
63111;BME280;49201;53.426;10.300;2023-02-08T04:23:21;104227.13;;;-4.52;100.00
63111;BME280;49201;53.426;10.300;2023-02-08T04:25:46;104230.13;;;-4.54;100.00
63111;BME280;49201;53.426;10.300;2023-02-08T04:28:11;104235.63;;;-4.57;100.00
63111;BME280;49201;53.426;10.300;2023-02-08T04:30:37;104232.53;;;-4.61;100.00
63111;BME280;49201;53.426;10.300;2023-02-08T04:33:02;104233.41;;;-4.61;100.00
63111;BME280;49201;53.426;10.300;2023-02-08T04:35:28;104219.19;;;-4.67;100.00
63111;BME280;49201;53.426;10.300;2023-02-08T04:37:53;104231.41;;;-4.63;100.00
63111;BME280;49201;53.426;10.300;2023-02-08T04:40:19;104235.53;;;-4.64;100.00
63111;BME280;49201;53.426;10.300;2023-02-08T04:42:44;104229.41;;;-4.66;100.00
63111;BME280;49201;53.426;10.300;2023-02-08T04:45:10;104230.09;;;-4.67;100.00
63111;BME280;49201;53.426;10.300;2023-02-08T04:47:35;104228.31;;;-4.68;100.00
63111;BME280;49201;53.426;10.300;2023-02-08T04:50:01;104224.69;;;-4.70;100.00
63111;BME280;49201;53.426;10.300;2023-02-08T04:52:26;104211.31;;;-4.70;100.00
63111;BME280;49201;53.426;10.300;2023-02-08T04:54:52;104210.91;;;-4.73;100.00
63111;BME280;49201;53.426;10.300;2023-02-08T04:57:17;104211.81;;;-4.73;100.00
63111;BME280;49201;53.426;10.300;2023-02-08T04:59:43;104210.41;;;-4.71;100.00
63111;BME280;49201;53.426;10.300;2023-02-08T05:02:08;104211.69;;;-4.67;100.00
63111;BME280;49201;53.426;10.300;2023-02-08T05:04:34;104210.13;;;-4.67;100.00
63111;BME280;49201;53.426;10.300;2023-02-08T05:07:00;104207.19;;;-4.70;100.00
63111;BME280;49201;53.426;10.300;2023-02-08T05:09:26;104207.00;;;-4.71;100.00
63111;BME280;49201;53.426;10.300;2023-02-08T05:11:51;104200.06;;;-4.61;100.00
63111;BME280;49201;53.426;10.300;2023-02-08T05:14:16;104186.72;;;-4.55;100.00
63111;BME280;49201;53.426;10.300;2023-02-08T05:16:42;104192.16;;;-4.52;100.00
63111;BME280;49201;53.426;10.300;2023-02-08T05:19:09;104188.78;;;-4.52;100.00
63111;BME280;49201;53.426;10.300;2023-02-08T05:21:35;104184.66;;;-4.52;100.00
63111;BME280;49201;53.426;10.300;2023-02-08T05:24:01;104186.28;;;-4.52;100.00
63111;BME280;49201;53.426;10.300;2023-02-08T05:26:26;104182.94;;;-4.46;100.00
63111;BME280;49201;53.426;10.300;2023-02-08T05:28:52;104178.56;;;-4.41;100.00
63111;BME280;49201;53.426;10.300;2023-02-08T05:31:20;104182.38;;;-4.38;100.00
63111;BME280;49201;53.426;10.300;2023-02-08T05:33:50;104185.00;;;-4.31;100.00
63111;BME280;49201;53.426;10.300;2023-02-08T05:36:17;104184.28;;;-4.30;100.00
63111;BME280;49201;53.426;10.300;2023-02-08T05:38:43;104183.38;;;-4.30;100.00
63111;BME280;49201;53.426;10.300;2023-02-08T05:41:09;104182.66;;;-4.29;100.00
63111;BME280;49201;53.426;10.300;2023-02-08T05:43:35;104187.66;;;-4.29;100.00
63111;BME280;49201;53.426;10.300;2023-02-08T05:46:01;104182.00;;;-4.28;100.00
63111;BME280;49201;53.426;10.300;2023-02-08T05:48:26;104184.78;;;-4.20;100.00
63111;BME280;49201;53.426;10.300;2023-02-08T05:50:52;104188.00;;;-4.21;100.00
63111;BME280;49201;53.426;10.300;2023-02-08T05:53:18;104189.38;;;-4.23;100.00
63111;BME280;49201;53.426;10.300;2023-02-08T05:55:44;104189.38;;;-4.23;100.00
63111;BME280;49201;53.426;10.300;2023-02-08T05:58:11;104183.69;;;-4.22;100.00
63111;BME280;49201;53.426;10.300;2023-02-08T06:00:36;104183.19;;;-4.19;100.00
63111;BME280;49201;53.426;10.300;2023-02-08T06:03:02;104185.56;;;-4.14;100.00
63111;BME280;49201;53.426;10.300;2023-02-08T06:05:27;104183.78;;;-4.15;100.00
63111;BME280;49201;53.426;10.300;2023-02-08T06:07:53;104185.41;;;-4.15;100.00
63111;BME280;49201;53.426;10.300;2023-02-08T06:10:18;104180.19;;;-4.17;100.00
63111;BME280;49201;53.426;10.300;2023-02-08T06:12:44;104183.19;;;-4.19;100.00
63111;BME280;49201;53.426;10.300;2023-02-08T06:15:09;104195.00;;;-4.18;100.00
63111;BME280;49201;53.426;10.300;2023-02-08T06:17:35;104197.38;;;-4.25;100.00
63111;BME280;49201;53.426;10.300;2023-02-08T06:20:00;104187.00;;;-4.28;100.00
63111;BME280;49201;53.426;10.300;2023-02-08T06:22:26;104190.28;;;-4.35;100.00
63111;BME280;49201;53.426;10.300;2023-02-08T06:24:51;104195.56;;;-4.39;100.00
63111;BME280;49201;53.426;10.300;2023-02-08T06:27:17;104193.56;;;-4.41;100.00
63111;BME280;49201;53.426;10.300;2023-02-08T06:29:42;104195.44;;;-4.46;100.00
63111;BME280;49201;53.426;10.300;2023-02-08T06:32:08;104194.56;;;-4.46;100.00
63111;BME280;49201;53.426;10.300;2023-02-08T06:34:33;104196.28;;;-4.52;100.00
63111;BME280;49201;53.426;10.300;2023-02-08T06:36:59;104204.44;;;-4.53;100.00
63111;BME280;49201;53.426;10.300;2023-02-08T06:39:27;104203.34;;;-4.55;100.00
63111;BME280;49201;53.426;10.300;2023-02-08T06:41:54;104199.56;;;-4.46;100.00
63111;BME280;49201;53.426;10.300;2023-02-08T06:44:19;104203.16;;;-4.44;100.00
63111;BME280;49201;53.426;10.300;2023-02-08T06:46:44;104205.06;;;-4.36;100.00
63111;BME280;49201;53.426;10.300;2023-02-08T06:49:10;104198.66;;;-4.34;100.00
63111;BME280;49201;53.426;10.300;2023-02-08T06:51:35;104193.16;;;-4.32;100.00
63111;BME280;49201;53.426;10.300;2023-02-08T06:54:01;104190.59;;;-4.26;100.00
63111;BME280;49201;53.426;10.300;2023-02-08T06:56:26;104204.72;;;-4.27;100.00
63111;BME280;49201;53.426;10.300;2023-02-08T06:58:52;104195.59;;;-4.26;100.00
63111;BME280;49201;53.426;10.300;2023-02-08T07:01:17;104195.09;;;-4.24;100.00
63111;BME280;49201;53.426;10.300;2023-02-08T07:03:43;104205.09;;;-4.24;100.00
63111;BME280;49201;53.426;10.300;2023-02-08T07:06:13;104196.19;;;-4.22;100.00
63111;BME280;49201;53.426;10.300;2023-02-08T07:08:38;104193.00;;;-4.21;100.00
63111;BME280;49201;53.426;10.300;2023-02-08T07:11:13;104195.19;;;-4.17;100.00
63111;BME280;49201;53.426;10.300;2023-02-08T07:13:38;104200.59;;;-4.14;100.00
63111;BME280;49201;53.426;10.300;2023-02-08T07:16:06;104206.91;;;-4.10;100.00
63111;BME280;49201;53.426;10.300;2023-02-08T07:18:32;104213.78;;;-4.02;100.00
63111;BME280;49201;53.426;10.300;2023-02-08T07:20:58;104209.91;;;-4.00;100.00
63111;BME280;49201;53.426;10.300;2023-02-08T07:23:23;104212.22;;;-4.02;100.00
63111;BME280;49201;53.426;10.300;2023-02-08T07:25:58;104205.50;;;-3.96;100.00
63111;BME280;49201;53.426;10.300;2023-02-08T07:28:24;104196.31;;;-3.90;100.00
63111;BME280;49201;53.426;10.300;2023-02-08T07:30:50;104190.78;;;-3.87;100.00
63111;BME280;49201;53.426;10.300;2023-02-08T07:33:15;104180.66;;;-3.82;100.00
63111;BME280;49201;53.426;10.300;2023-02-08T07:35:41;104181.66;;;-3.74;100.00
63111;BME280;49201;53.426;10.300;2023-02-08T07:38:06;104184.75;;;-3.70;100.00
63111;BME280;49201;53.426;10.300;2023-02-08T07:40:32;104179.81;;;-3.63;100.00
63111;BME280;49201;53.426;10.300;2023-02-08T07:42:57;104183.81;;;-3.58;100.00
63111;BME280;49201;53.426;10.300;2023-02-08T07:45:37;104175.91;;;-3.48;100.00
63111;BME280;49201;53.426;10.300;2023-02-08T07:48:03;104175.78;;;-3.43;100.00
63111;BME280;49201;53.426;10.300;2023-02-08T07:50:28;104164.16;;;-3.42;100.00
63111;BME280;49201;53.426;10.300;2023-02-08T07:52:53;104171.75;;;-3.35;100.00
63111;BME280;49201;53.426;10.300;2023-02-08T07:55:19;104182.03;;;-3.27;100.00
63111;BME280;49201;53.426;10.300;2023-02-08T07:57:46;104177.81;;;-3.21;100.00
63111;BME280;49201;53.426;10.300;2023-02-08T08:00:14;104176.44;;;-3.12;100.00
63111;BME280;49201;53.426;10.300;2023-02-08T08:02:39;104180.72;;;-2.98;100.00
63111;BME280;49201;53.426;10.300;2023-02-08T08:05:06;104183.47;;;-2.90;100.00
63111;BME280;49201;53.426;10.300;2023-02-08T08:07:32;104181.41;;;-2.80;100.00
63111;BME280;49201;53.426;10.300;2023-02-08T08:09:57;104183.69;;;-2.69;100.00
63111;BME280;49201;53.426;10.300;2023-02-08T08:12:23;104187.53;;;-2.58;100.00
63111;BME280;49201;53.426;10.300;2023-02-08T08:14:49;104180.44;;;-2.48;100.00
63111;BME280;49201;53.426;10.300;2023-02-08T08:17:15;104173.84;;;-2.41;100.00
63111;BME280;49201;53.426;10.300;2023-02-08T08:19:41;104181.28;;;-2.28;100.00
63111;BME280;49201;53.426;10.300;2023-02-08T08:22:06;104168.53;;;-2.30;100.00
63111;BME280;49201;53.426;10.300;2023-02-08T08:24:32;104174.19;;;-2.18;100.00
63111;BME280;49201;53.426;10.300;2023-02-08T08:27:03;104174.03;;;-2.13;100.00
63111;BME280;49201;53.426;10.300;2023-02-08T08:29:34;104179.13;;;-1.99;100.00
63111;BME280;49201;53.426;10.300;2023-02-08T08:32:00;104171.47;;;-1.93;100.00
63111;BME280;49201;53.426;10.300;2023-02-08T08:34:26;104165.38;;;-1.88;100.00
63111;BME280;49201;53.426;10.300;2023-02-08T08:36:59;104168.69;;;-1.75;100.00
63111;BME280;49201;53.426;10.300;2023-02-08T08:39:25;104170.72;;;-1.59;100.00
63111;BME280;49201;53.426;10.300;2023-02-08T08:41:58;104165.50;;;-1.53;100.00
63111;BME280;49201;53.426;10.300;2023-02-08T08:44:23;104158.41;;;-1.36;100.00
63111;BME280;49201;53.426;10.300;2023-02-08T08:46:49;104157.34;;;-1.24;100.00
63111;BME280;49201;53.426;10.300;2023-02-08T08:49:15;104160.09;;;-0.95;100.00
63111;BME280;49201;53.426;10.300;2023-02-08T08:51:40;104158.28;;;-0.75;100.00
63111;BME280;49201;53.426;10.300;2023-02-08T08:54:06;104166.00;;;-0.45;100.00
63111;BME280;49201;53.426;10.300;2023-02-08T08:56:32;104153.38;;;-0.17;100.00
63111;BME280;49201;53.426;10.300;2023-02-08T08:58:58;104155.66;;;0.03;100.00
63111;BME280;49201;53.426;10.300;2023-02-08T09:01:24;104149.53;;;0.08;100.00
63111;BME280;49201;53.426;10.300;2023-02-08T09:03:49;104152.78;;;0.73;100.00
63111;BME280;49201;53.426;10.300;2023-02-08T09:06:15;104160.56;;;1.42;100.00
63111;BME280;49201;53.426;10.300;2023-02-08T09:08:41;104157.69;;;2.08;100.00
63111;BME280;49201;53.426;10.300;2023-02-08T09:11:12;104145.44;;;3.72;100.00
63111;BME280;49201;53.426;10.300;2023-02-08T09:13:38;104127.59;;;6.44;83.21
63111;BME280;49201;53.426;10.300;2023-02-08T09:16:05;104124.13;;;7.29;68.94
63111;BME280;49201;53.426;10.300;2023-02-08T09:18:31;104125.66;;;7.97;62.12
63111;BME280;49201;53.426;10.300;2023-02-08T09:20:56;104124.84;;;9.44;54.34
63111;BME280;49201;53.426;10.300;2023-02-08T09:23:22;104114.88;;;9.92;51.32
63111;BME280;49201;53.426;10.300;2023-02-08T09:25:47;104120.22;;;8.54;52.39
63111;BME280;49201;53.426;10.300;2023-02-08T09:28:12;104109.13;;;9.28;50.79
63111;BME280;49201;53.426;10.300;2023-02-08T09:30:38;104105.84;;;9.85;47.65
63111;BME280;49201;53.426;10.300;2023-02-08T09:33:03;104101.63;;;11.14;44.60
63111;BME280;49201;53.426;10.300;2023-02-08T09:35:29;104094.81;;;11.75;42.17
63111;BME280;49201;53.426;10.300;2023-02-08T09:37:55;104103.25;;;11.00;42.93
63111;BME280;49201;53.426;10.300;2023-02-08T09:40:29;104108.59;;;10.21;43.68
63111;BME280;49201;53.426;10.300;2023-02-08T09:43:12;104097.22;;;12.50;40.34
63111;BME280;49201;53.426;10.300;2023-02-08T09:46:07;104091.34;;;12.78;39.25
63111;BME280;49201;53.426;10.300;2023-02-08T09:48:37;104095.75;;;13.35;37.18
63111;BME280;49201;53.426;10.300;2023-02-08T09:51:32;104084.97;;;15.52;35.21
63111;BME280;49201;53.426;10.300;2023-02-08T09:54:16;104087.53;;;16.02;34.56
63111;BME280;49201;53.426;10.300;2023-02-08T09:56:46;104089.00;;;15.63;34.23
63111;BME280;49201;53.426;10.300;2023-02-08T09:59:20;104081.69;;;17.33;32.42
63111;BME280;49201;53.426;10.300;2023-02-08T10:01:48;104087.13;;;16.45;32.75
63111;BME280;49201;53.426;10.300;2023-02-08T10:04:24;104079.97;;;16.95;32.16
63111;BME280;49201;53.426;10.300;2023-02-08T10:06:52;104083.78;;;17.60;30.61
63111;BME280;49201;53.426;10.300;2023-02-08T10:09:21;104083.81;;;17.41;31.24
63111;BME280;49201;53.426;10.300;2023-02-08T10:17:31;104079.25;;;17.36;29.72
63111;BME280;49201;53.426;10.300;2023-02-08T10:20:03;104072.50;;;18.62;29.40
63111;BME280;49201;53.426;10.300;2023-02-08T10:25:42;104065.16;;;17.10;30.09
63111;BME280;49201;53.426;10.300;2023-02-08T10:34:19;104071.47;;;18.59;28.17
63111;BME280;49201;53.426;10.300;2023-02-08T10:36:35;104045.06;;;20.72;26.91
63111;BME280;49201;53.426;10.300;2023-02-08T10:39:14;104052.75;;;20.11;26.91
63111;BME280;49201;53.426;10.300;2023-02-08T10:41:40;104055.28;;;20.10;27.19
63111;BME280;49201;53.426;10.300;2023-02-08T10:47:02;104053.38;;;19.79;27.83
63111;BME280;49201;53.426;10.300;2023-02-08T10:49:41;104056.63;;;19.24;27.04
63111;BME280;49201;53.426;10.300;2023-02-08T10:52:09;104044.78;;;19.82;27.25
63111;BME280;49201;53.426;10.300;2023-02-08T10:54:34;104045.53;;;20.87;26.42
63111;BME280;49201;53.426;10.300;2023-02-08T10:57:03;104045.31;;;20.81;26.38
63111;BME280;49201;53.426;10.300;2023-02-08T10:59:45;104064.84;;;16.85;28.91
63111;BME280;49201;53.426;10.300;2023-02-08T11:02:22;104075.31;;;13.38;35.21
63111;BME280;49201;53.426;10.300;2023-02-08T11:07:23;104094.66;;;11.00;41.39
63111;BME280;49201;53.426;10.300;2023-02-08T11:09:49;104085.38;;;12.26;42.45
63111;BME280;49201;53.426;10.300;2023-02-08T11:12:18;104081.56;;;12.73;42.35
63111;BME280;49201;53.426;10.300;2023-02-08T11:14:49;104089.09;;;11.92;40.91
63111;BME280;49201;53.426;10.300;2023-02-08T11:17:27;104086.59;;;11.67;40.08
63111;BME280;49201;53.426;10.300;2023-02-08T11:19:54;104082.06;;;12.67;40.01
63111;BME280;49201;53.426;10.300;2023-02-08T11:22:22;104063.25;;;14.85;37.15
63111;BME280;49201;53.426;10.300;2023-02-08T11:24:58;104030.22;;;18.66;29.20
63111;BME280;49201;53.426;10.300;2023-02-08T11:32:33;104020.03;;;22.86;23.27
63111;BME280;49201;53.426;10.300;2023-02-08T11:37:55;104009.56;;;22.44;23.58
63111;BME280;49201;53.426;10.300;2023-02-08T11:42:54;104007.47;;;23.11;22.68
63111;BME280;49201;53.426;10.300;2023-02-08T11:45:27;103995.13;;;24.66;20.95
63111;BME280;49201;53.426;10.300;2023-02-08T11:47:54;104004.88;;;22.68;21.21
63111;BME280;49201;53.426;10.300;2023-02-08T11:50:33;103997.34;;;23.78;20.46
63111;BME280;49201;53.426;10.300;2023-02-08T11:53:01;103998.78;;;23.12;20.78
63111;BME280;49201;53.426;10.300;2023-02-08T11:55:30;103992.97;;;23.77;20.41
63111;BME280;49201;53.426;10.300;2023-02-08T11:58:18;103992.75;;;23.15;20.18
63111;BME280;49201;53.426;10.300;2023-02-08T12:01:04;103990.59;;;22.51;21.30
63111;BME280;49201;53.426;10.300;2023-02-08T12:03:37;103994.72;;;22.03;21.57
63111;BME280;49201;53.426;10.300;2023-02-08T12:08:43;103990.88;;;20.59;21.91
63111;BME280;49201;53.426;10.300;2023-02-08T12:11:40;103996.03;;;22.62;21.33
63111;BME280;49201;53.426;10.300;2023-02-08T12:14:11;103991.22;;;22.02;21.53
63111;BME280;49201;53.426;10.300;2023-02-08T12:22:22;103981.16;;;21.82;22.34
63111;BME280;49201;53.426;10.300;2023-02-08T12:28:04;103984.53;;;19.43;23.86
63111;BME280;49201;53.426;10.300;2023-02-08T12:30:34;103978.00;;;19.54;23.93
63111;BME280;49201;53.426;10.300;2023-02-08T12:39:28;103959.97;;;21.34;22.90
63111;BME280;49201;53.426;10.300;2023-02-08T12:42:56;103958.00;;;20.64;23.89
63111;BME280;49201;53.426;10.300;2023-02-08T12:53:53;103964.28;;;15.16;29.06
63111;BME280;49201;53.426;10.300;2023-02-08T12:56:28;103949.69;;;15.68;29.60
63111;BME280;49201;53.426;10.300;2023-02-08T12:58:57;103945.53;;;16.06;29.95
63111;BME280;49201;53.426;10.300;2023-02-08T13:01:29;103938.94;;;15.76;28.61
63111;BME280;49201;53.426;10.300;2023-02-08T13:04:07;103930.69;;;16.96;27.79
63111;BME280;49201;53.426;10.300;2023-02-08T13:06:48;103934.69;;;15.96;28.86
63111;BME280;49201;53.426;10.300;2023-02-08T13:12:01;103934.16;;;16.39;29.92
63111;BME280;49201;53.426;10.300;2023-02-08T13:14:38;103926.94;;;16.32;30.27
63111;BME280;49201;53.426;10.300;2023-02-08T13:17:27;103917.53;;;16.15;30.37
63111;BME280;49201;53.426;10.300;2023-02-08T13:20:01;103919.59;;;15.51;31.41
63111;BME280;49201;53.426;10.300;2023-02-08T13:22:31;103912.34;;;15.44;30.80
63111;BME280;49201;53.426;10.300;2023-02-08T13:25:00;103909.38;;;15.03;30.38
63111;BME280;49201;53.426;10.300;2023-02-08T13:27:26;103908.25;;;14.18;31.65
63111;BME280;49201;53.426;10.300;2023-02-08T13:29:52;103900.50;;;14.98;31.07
63111;BME280;49201;53.426;10.300;2023-02-08T13:32:40;103916.72;;;14.15;32.11
63111;BME280;49201;53.426;10.300;2023-02-08T13:37:41;103892.31;;;15.06;31.46
63111;BME280;49201;53.426;10.300;2023-02-08T13:40:17;103887.78;;;15.01;31.16
63111;BME280;49201;53.426;10.300;2023-02-08T13:42:56;103882.03;;;15.94;30.77
63111;BME280;49201;53.426;10.300;2023-02-08T13:45:35;103886.06;;;15.01;31.72
63111;BME280;49201;53.426;10.300;2023-02-08T13:48:07;103879.63;;;15.79;31.77
63111;BME280;49201;53.426;10.300;2023-02-08T13:53:13;103870.06;;;14.91;32.01
63111;BME280;49201;53.426;10.300;2023-02-08T13:55:42;103870.06;;;15.42;31.27
63111;BME280;49201;53.426;10.300;2023-02-08T14:03:24;103862.31;;;15.96;31.29
63111;BME280;49201;53.426;10.300;2023-02-08T14:05:57;103846.84;;;15.78;31.02
63111;BME280;49201;53.426;10.300;2023-02-08T14:11:59;103857.59;;;15.51;32.40
63111;BME280;49201;53.426;10.300;2023-02-08T14:19:42;103851.78;;;15.91;32.76
63111;BME280;49201;53.426;10.300;2023-02-08T14:24:43;103859.06;;;15.63;32.95
63111;BME280;49201;53.426;10.300;2023-02-08T14:27:40;103850.63;;;15.50;33.19
63111;BME280;49201;53.426;10.300;2023-02-08T14:30:21;103854.09;;;15.68;32.95
63111;BME280;49201;53.426;10.300;2023-02-08T14:33:10;103863.81;;;15.21;33.79
63111;BME280;49201;53.426;10.300;2023-02-08T14:35:58;103859.13;;;14.63;33.71
63111;BME280;49201;53.426;10.300;2023-02-08T14:41:00;103852.13;;;14.28;33.68